WetterOnline ( https://www.wetteronline.de )

Wetter aktuell Handbjerg

Aktuelles Wetter: Thyboroen (3m)

6-stündlich | Neueste Meldungen
Ortszeit Temperatur Wetter
Mo, 03.08. 20:00 15.3° C wolkenlos
Mo, 03.08. 14:00 16.4° C fast wolkenlos
Mo, 03.08. 8:00 14.8° C leicht bewölkt
Mo, 03.08. 2:00 14.6° C bewölkt
So, 02.08. 20:00 15.2° C fast wolkenlos
So, 02.08. 14:00 16.3° C bedeckt
So, 02.08. 8:00 14.5° C bedeckt
So, 02.08. 2:00 14.9° C bewölkt
Ortszeit Temperatur Wetter
Di, 04.08. 1:00 14.6° C leicht bewölkt
Di, 04.08. 0:00 14.4° C fast wolkenlos
Mo, 03.08. 23:00 14.6° C wolkig
Mo, 03.08. 22:00 14.6° C leicht bewölkt
Mo, 03.08. 21:00 14.7° C wolkenlos
Mo, 03.08. 20:00 15.3° C wolkenlos
Ortszeit Relative Feuchte Sichtweite
Mo, 03.08. 20:00 76% 27 km
Mo, 03.08. 14:00 75% 23 km
Mo, 03.08. 8:00 82% 21 km
Mo, 03.08. 2:00 86% 30 km
So, 02.08. 20:00 84% 17 km
So, 02.08. 14:00 84% 16 km
So, 02.08. 8:00 95% 20 km
So, 02.08. 2:00 100% 4.4 km
Ortszeit Relative Feuchte Sichtweite
Di, 04.08. 1:00 82% 35 km
Di, 04.08. 0:00 82% 35 km
Mo, 03.08. 23:00 82% 22 km
Mo, 03.08. 22:00 81% 30 km
Mo, 03.08. 21:00 80% 26 km
Mo, 03.08. 20:00 76% 27 km
Ortszeit Niederschlagsmenge Niederschlagsart
Mo, 03.08. 20:00 0.0 l/m2 in 3 Std. -
Mo, 03.08. 14:00 keine Meldung -
Mo, 03.08. 8:00 0.0 l/m2 in 3 Std. Regenschauer
Mo, 03.08. 2:00 keine Meldung -
So, 02.08. 20:00 0.0 l/m2 in 3 Std. Regen
So, 02.08. 14:00 0.0 l/m2 in 3 Std. -
So, 02.08. 8:00 0.1 l/m2 in 3 Std. Regenschauer
So, 02.08. 2:00 0.1 l/m2 in 3 Std. Regenschauer
Ortszeit Niederschlagsmenge Niederschlagsart
Di, 04.08. 1:00 0.0 l/m2 in 1 Std. -
Di, 04.08. 0:00 0.0 l/m2 in 1 Std. -
Mo, 03.08. 23:00 0.0 l/m2 in 1 Std. -
Mo, 03.08. 22:00 keine Meldung -
Mo, 03.08. 21:00 0.0 l/m2 in 1 Std. -
Mo, 03.08. 20:00 0.0 l/m2 in 1 Std. -
Ortszeit Stärke Spitze Richtung
km/h Bft. km/h Grad Sektor
Mo, 03.08. 20:00 24 4 - 280° W
Mo, 03.08. 14:00 24 4 - 280° W
Mo, 03.08. 8:00 22 4 - 290° W
Mo, 03.08. 2:00 28 4 - 260° W
So, 02.08. 20:00 28 4 - 270° W
So, 02.08. 14:00 18 3 - 240° SW
So, 02.08. 8:00 24 4 - 280° W
So, 02.08. 2:00 24 4 - 240° SW
Ortszeit Stärke Spitze Richtung
km/h Bft. km/h Grad Sektor
Di, 04.08. 1:00 22 4 - 270° W
Di, 04.08. 0:00 20 4 - 270° W
Mo, 03.08. 23:00 24 4 - 280° W
Mo, 03.08. 22:00 26 4 - 270° W
Mo, 03.08. 21:00 25 4 - 280° W
Mo, 03.08. 20:00 24 4 - 280° W
Ortszeit Untergrenze Bedeckung Gattung
total tief tief mittel hoch
Mo, 03.08. 20:00 - 0/8 0/8 - - -
Mo, 03.08. 14:00 570 m 1/8 1/8 - - -
Mo, 03.08. 8:00 480 m 3/8 3/8 - - -
Mo, 03.08. 2:00 480 m 7/8 7/8 - - -
So, 02.08. 20:00 450 m 1/8 1/8 - - -
So, 02.08. 14:00 300 m 8/8 8/8 - - -
So, 02.08. 8:00 210 m 8/8 8/8 - - -
So, 02.08. 2:00 30 m 7/8 7/8 - - -
Ortszeit Bedeckungsgrad in Achtel und Wolkenuntergrenze
Di, 04.08. 1:00 1(540m) 3(930m)
Di, 04.08. 0:00 1(540m)
Mo, 03.08. 23:00 1(570m) 3(720m) 5(1080m)
Mo, 03.08. 22:00 1(570m) 3(720m)
Mo, 03.08. 21:00 keine Wolken
Mo, 03.08. 20:00 keine Wolken
Ortszeit Luftdruck NN (hPa) Tendenz (hPa in 3 Std.)
Mo, 03.08. 20:00 1013 + 0,1
Mo, 03.08. 14:00 1013 + 0,7
Mo, 03.08. 8:00 1012 + 0,4
Mo, 03.08. 2:00 1012 + 0,2
So, 02.08. 20:00 1011 + 0,2
So, 02.08. 14:00 1011 + 0,1
So, 02.08. 8:00 1011 + 0,2
So, 02.08. 2:00 1011 0,0
Ortszeit Luftdruck NN (hPa) Tendenz (hPa in 3 Std.)
Di, 04.08. 1:00 1013 - 0,1
Di, 04.08. 0:00 1013 0,0
Mo, 03.08. 23:00 1013 + 0,2
Mo, 03.08. 22:00 1013 + 0,3
Mo, 03.08. 21:00 1013 + 0,2
Mo, 03.08. 20:00 1013 + 0,1
Ortszeit Schneehöhe (cm)
Mo, 03.08. 20:00 -
Mo, 03.08. 14:00 -
Mo, 03.08. 8:00 -
Mo, 03.08. 2:00 -
So, 02.08. 20:00 -
So, 02.08. 14:00 -
So, 02.08. 8:00 -
So, 02.08. 2:00 -
Ortszeit Schneehöhe (cm)
Di, 04.08. 1:00 -
Di, 04.08. 0:00 -
Mo, 03.08. 23:00 -
Mo, 03.08. 22:00 -
Mo, 03.08. 21:00 -
Mo, 03.08. 20:00 -
Link zu dieser Seite / Seite empfehlen

Das Wetter in ...